sensor_id;sensor_type;location;lat;lon;timestamp;pressure;altitude;pressure_sealevel;temperature;humidity
21779;BME280;11050;52.222;20.916;2023-05-25T00:00:32;100467.81;;;14.27;100.00
21779;BME280;11050;52.222;20.916;2023-05-25T00:02:58;100468.59;;;14.27;100.00
21779;BME280;11050;52.222;20.916;2023-05-25T00:05:25;100473.88;;;14.29;100.00
21779;BME280;11050;52.222;20.916;2023-05-25T00:07:53;100463.63;;;14.30;100.00
21779;BME280;11050;52.222;20.916;2023-05-25T00:10:20;100468.34;;;14.34;100.00
21779;BME280;11050;52.222;20.916;2023-05-25T00:12:46;100458.94;;;14.35;100.00
21779;BME280;11050;52.222;20.916;2023-05-25T00:15:12;100465.88;;;14.38;100.00
21779;BME280;11050;52.222;20.916;2023-05-25T00:17:39;100468.06;;;14.41;100.00
21779;BME280;11050;52.222;20.916;2023-05-25T00:20:06;100471.97;;;14.40;100.00
21779;BME280;11050;52.222;20.916;2023-05-25T00:22:36;100468.38;;;14.44;100.00
21779;BME280;11050;52.222;20.916;2023-05-25T00:25:04;100465.63;;;14.44;100.00
21779;BME280;11050;52.222;20.916;2023-05-25T00:27:30;100463.94;;;14.48;100.00
21779;BME280;11050;52.222;20.916;2023-05-25T00:29:57;100471.69;;;14.56;100.00
21779;BME280;11050;52.222;20.916;2023-05-25T00:32:23;100470.03;;;14.50;100.00
21779;BME280;11050;52.222;20.916;2023-05-25T00:34:49;100476.38;;;14.51;100.00
21779;BME280;11050;52.222;20.916;2023-05-25T00:37:15;100471.13;;;14.54;100.00
21779;BME280;11050;52.222;20.916;2023-05-25T00:39:40;100467.00;;;14.52;100.00
21779;BME280;11050;52.222;20.916;2023-05-25T00:42:07;100473.06;;;14.49;100.00
21779;BME280;11050;52.222;20.916;2023-05-25T00:44:33;100470.56;;;14.52;100.00
21779;BME280;11050;52.222;20.916;2023-05-25T00:46:59;100473.63;;;14.51;100.00
21779;BME280;11050;52.222;20.916;2023-05-25T00:49:30;100471.41;;;14.53;100.00
21779;BME280;11050;52.222;20.916;2023-05-25T00:51:57;100470.03;;;14.50;100.00
21779;BME280;11050;52.222;20.916;2023-05-25T00:54:23;100483.03;;;14.50;100.00
21779;BME280;11050;52.222;20.916;2023-05-25T00:57:01;100478.88;;;14.52;100.00
21779;BME280;11050;52.222;20.916;2023-05-25T00:59:45;100481.91;;;14.51;100.00
21779;BME280;11050;52.222;20.916;2023-05-25T01:02:13;100480.56;;;14.53;100.00
21779;BME280;11050;52.222;20.916;2023-05-25T01:04:50;100492.69;;;14.52;100.00
21779;BME280;11050;52.222;20.916;2023-05-25T01:07:21;100488.56;;;14.50;100.00
21779;BME280;11050;52.222;20.916;2023-05-25T01:09:56;100484.13;;;14.49;100.00
21779;BME280;11050;52.222;20.916;2023-05-25T01:12:25;100491.59;;;14.43;100.00
21779;BME280;11050;52.222;20.916;2023-05-25T01:14:54;100490.75;;;14.43;100.00
21779;BME280;11050;52.222;20.916;2023-05-25T01:17:20;100492.16;;;14.45;100.00
21779;BME280;11050;52.222;20.916;2023-05-25T01:19:46;100495.75;;;14.46;100.00
21779;BME280;11050;52.222;20.916;2023-05-25T01:22:29;100503.78;;;14.42;100.00
21779;BME280;11050;52.222;20.916;2023-05-25T01:25:08;100505.97;;;14.45;100.00
21779;BME280;11050;52.222;20.916;2023-05-25T01:27:47;100505.41;;;14.43;100.00
21779;BME280;11050;52.222;20.916;2023-05-25T01:30:18;100505.69;;;14.42;100.00
21779;BME280;11050;52.222;20.916;2023-05-25T01:32:44;100498.50;;;14.41;100.00
21779;BME280;11050;52.222;20.916;2023-05-25T01:35:12;100498.25;;;14.42;100.00
21779;BME280;11050;52.222;20.916;2023-05-25T01:37:48;100480.53;;;14.38;100.00
21779;BME280;11050;52.222;20.916;2023-05-25T01:40:14;100485.50;;;14.36;100.00
21779;BME280;11050;52.222;20.916;2023-05-25T01:42:40;100486.34;;;14.37;100.00
21779;BME280;11050;52.222;20.916;2023-05-25T01:45:12;100499.06;;;14.38;100.00
21779;BME280;11050;52.222;20.916;2023-05-25T01:47:57;100491.59;;;14.38;100.00
21779;BME280;11050;52.222;20.916;2023-05-25T01:50:53;100488.81;;;14.43;100.00
21779;BME280;11050;52.222;20.916;2023-05-25T01:53:32;100483.28;;;14.48;100.00
21779;BME280;11050;52.222;20.916;2023-05-25T01:56:05;100492.69;;;14.47;100.00
21779;BME280;11050;52.222;20.916;2023-05-25T01:58:41;100491.06;;;14.51;100.00
21779;BME280;11050;52.222;20.916;2023-05-25T02:01:13;100504.03;;;14.51;100.00
21779;BME280;11050;52.222;20.916;2023-05-25T02:03:41;100488.81;;;14.48;100.00
21779;BME280;11050;52.222;20.916;2023-05-25T02:06:07;100492.16;;;14.50;100.00
21779;BME280;11050;52.222;20.916;2023-05-25T02:08:33;100489.94;;;14.52;100.00
21779;BME280;11050;52.222;20.916;2023-05-25T02:11:00;100482.47;;;14.48;100.00
21779;BME280;11050;52.222;20.916;2023-05-25T02:13:25;100473.06;;;14.49;100.00
21779;BME280;11050;52.222;20.916;2023-05-25T02:15:52;100487.44;;;14.51;100.00
21779;BME280;11050;52.222;20.916;2023-05-25T02:18:18;100484.97;;;14.49;100.00
21779;BME280;11050;52.222;20.916;2023-05-25T02:20:44;100487.16;;;14.47;100.00
21779;BME280;11050;52.222;20.916;2023-05-25T02:23:10;100483.03;;;14.50;100.00
21779;BME280;11050;52.222;20.916;2023-05-25T02:25:36;100493.81;;;14.51;100.00
21779;BME280;11050;52.222;20.916;2023-05-25T02:28:03;100490.22;;;14.51;100.00
21779;BME280;11050;52.222;20.916;2023-05-25T02:30:28;100499.34;;;14.51;100.00
21779;BME280;11050;52.222;20.916;2023-05-25T02:32:54;100503.75;;;14.47;100.00
21779;BME280;11050;52.222;20.916;2023-05-25T02:35:21;100501.00;;;14.52;100.00
21779;BME280;11050;52.222;20.916;2023-05-25T02:37:47;100489.09;;;14.42;100.00
21779;BME280;11050;52.222;20.916;2023-05-25T02:40:13;100498.78;;;14.49;100.00
21779;BME280;11050;52.222;20.916;2023-05-25T02:42:39;100507.09;;;14.49;100.00
21779;BME280;11050;52.222;20.916;2023-05-25T02:45:08;100505.41;;;14.48;100.00
21779;BME280;11050;52.222;20.916;2023-05-25T02:47:35;100504.88;;;14.51;100.00
21779;BME280;11050;52.222;20.916;2023-05-25T02:50:02;100504.59;;;14.53;100.00
21779;BME280;11050;52.222;20.916;2023-05-25T02:52:28;100510.13;;;14.53;100.00
21779;BME280;11050;52.222;20.916;2023-05-25T02:54:56;100513.47;;;14.55;100.00
21779;BME280;11050;52.222;20.916;2023-05-25T02:57:22;100495.19;;;14.49;100.00
21779;BME280;11050;52.222;20.916;2023-05-25T02:59:48;100500.19;;;14.52;100.00
21779;BME280;11050;52.222;20.916;2023-05-25T03:02:14;100499.63;;;14.55;100.00
21779;BME280;11050;52.222;20.916;2023-05-25T03:04:43;100503.75;;;14.52;100.00
21779;BME280;11050;52.222;20.916;2023-05-25T03:07:11;100491.59;;;14.48;100.00
21779;BME280;11050;52.222;20.916;2023-05-25T03:09:38;100501.28;;;14.51;100.00
21779;BME280;11050;52.222;20.916;2023-05-25T03:12:03;100510.69;;;14.50;100.00
21779;BME280;11050;52.222;20.916;2023-05-25T03:14:29;100501.84;;;14.53;100.00
21779;BME280;11050;52.222;20.916;2023-05-25T03:16:55;100505.44;;;14.53;100.00
21779;BME280;11050;52.222;20.916;2023-05-25T03:19:20;100519.28;;;14.53;100.00
21779;BME280;11050;52.222;20.916;2023-05-25T03:21:46;100512.91;;;14.53;100.00
21779;BME280;11050;52.222;20.916;2023-05-25T03:24:12;100515.38;;;14.54;100.00
21779;BME280;11050;52.222;20.916;2023-05-25T03:26:38;100520.06;;;14.54;100.00
21779;BME280;11050;52.222;20.916;2023-05-25T03:29:03;100523.69;;;14.54;100.00
21779;BME280;11050;52.222;20.916;2023-05-25T03:31:31;100519.81;;;14.55;100.00
21779;BME280;11050;52.222;20.916;2023-05-25T03:33:57;100534.78;;;14.59;100.00
21779;BME280;11050;52.222;20.916;2023-05-25T03:36:23;100531.72;;;14.61;100.00
21779;BME280;11050;52.222;20.916;2023-05-25T03:38:52;100543.63;;;14.66;100.00
21779;BME280;11050;52.222;20.916;2023-05-25T03:41:18;100540.56;;;14.68;100.00
21779;BME280;11050;52.222;20.916;2023-05-25T03:43:44;100540.28;;;14.69;100.00
21779;BME280;11050;52.222;20.916;2023-05-25T03:46:09;100543.09;;;14.74;100.00
21779;BME280;11050;52.222;20.916;2023-05-25T03:48:36;100535.88;;;14.73;100.00
21779;BME280;11050;52.222;20.916;2023-05-25T03:51:02;100530.91;;;14.80;100.00
21779;BME280;11050;52.222;20.916;2023-05-25T03:53:28;100537.28;;;14.81;100.00
21779;BME280;11050;52.222;20.916;2023-05-25T03:55:54;100539.47;;;14.79;100.00
21779;BME280;11050;52.222;20.916;2023-05-25T03:58:20;100537.84;;;14.78;100.00
21779;BME280;11050;52.222;20.916;2023-05-25T04:00:46;100541.72;;;14.82;100.00
21779;BME280;11050;52.222;20.916;2023-05-25T04:03:15;100526.19;;;14.81;100.00
21779;BME280;11050;52.222;20.916;2023-05-25T04:05:40;100538.63;;;14.78;100.00
21779;BME280;11050;52.222;20.916;2023-05-25T04:08:06;100544.47;;;14.82;100.00
21779;BME280;11050;52.222;20.916;2023-05-25T04:10:33;100535.06;;;14.83;100.00
21779;BME280;11050;52.222;20.916;2023-05-25T04:12:58;100542.50;;;14.82;100.00
21779;BME280;11050;52.222;20.916;2023-05-25T04:15:24;100547.25;;;14.82;100.00
21779;BME280;11050;52.222;20.916;2023-05-25T04:17:50;100548.63;;;14.94;100.00
21779;BME280;11050;52.222;20.916;2023-05-25T04:20:16;100551.13;;;15.06;100.00
21779;BME280;11050;52.222;20.916;2023-05-25T04:22:41;100558.31;;;15.17;100.00
21779;BME280;11050;52.222;20.916;2023-05-25T04:25:09;100553.88;;;15.21;100.00
21779;BME280;11050;52.222;20.916;2023-05-25T04:27:35;100561.06;;;15.27;100.00
21779;BME280;11050;52.222;20.916;2023-05-25T04:30:02;100556.63;;;15.26;100.00
21779;BME280;11050;52.222;20.916;2023-05-25T04:32:28;100559.94;;;15.33;100.00
21779;BME280;11050;52.222;20.916;2023-05-25T04:34:55;100556.06;;;15.34;100.00
21779;BME280;11050;52.222;20.916;2023-05-25T04:37:22;100557.44;;;15.37;100.00
21779;BME280;11050;52.222;20.916;2023-05-25T04:39:48;100553.59;;;15.33;100.00
21779;BME280;11050;52.222;20.916;2023-05-25T04:42:14;100559.94;;;15.33;100.00
21779;BME280;11050;52.222;20.916;2023-05-25T04:44:41;100557.16;;;15.33;100.00
21779;BME280;11050;52.222;20.916;2023-05-25T04:47:07;100560.22;;;15.37;100.00
21779;BME280;11050;52.222;20.916;2023-05-25T04:49:33;100563.56;;;15.44;100.00
21779;BME280;11050;52.222;20.916;2023-05-25T04:51:58;100561.34;;;15.46;100.00
21779;BME280;11050;52.222;20.916;2023-05-25T04:54:24;100574.09;;;15.42;100.00
21779;BME280;11050;52.222;20.916;2023-05-25T04:56:50;100562.44;;;15.40;100.00
21779;BME280;11050;52.222;20.916;2023-05-25T04:59:16;100566.03;;;15.40;100.00
21779;BME280;11050;52.222;20.916;2023-05-25T05:01:41;100566.59;;;15.37;100.00
21779;BME280;11050;52.222;20.916;2023-05-25T05:04:09;100574.34;;;15.35;100.00
21779;BME280;11050;52.222;20.916;2023-05-25T05:06:35;100574.91;;;15.32;100.00
21779;BME280;11050;52.222;20.916;2023-05-25T05:09:01;100568.53;;;15.32;100.00
21779;BME280;11050;52.222;20.916;2023-05-25T05:11:28;100572.38;;;15.41;100.00
21779;BME280;11050;52.222;20.916;2023-05-25T05:13:54;100562.16;;;15.46;100.00
21779;BME280;11050;52.222;20.916;2023-05-25T05:16:21;100564.09;;;15.51;100.00
21779;BME280;11050;52.222;20.916;2023-05-25T05:18:47;100573.53;;;15.55;100.00
21779;BME280;11050;52.222;20.916;2023-05-25T05:21:12;100569.06;;;15.54;100.00
21779;BME280;11050;52.222;20.916;2023-05-25T05:23:38;100581.28;;;15.53;100.00
21779;BME280;11050;52.222;20.916;2023-05-25T05:26:04;100583.75;;;15.54;100.00
21779;BME280;11050;52.222;20.916;2023-05-25T05:28:31;100590.69;;;15.57;100.00
21779;BME280;11050;52.222;20.916;2023-05-25T05:30:57;100585.72;;;15.59;100.00
21779;BME280;11050;52.222;20.916;2023-05-25T05:33:23;100583.50;;;15.61;100.00
21779;BME280;11050;52.222;20.916;2023-05-25T05:35:50;100578.75;;;15.66;100.00
21779;BME280;11050;52.222;20.916;2023-05-25T05:38:17;100587.06;;;15.71;100.00
21779;BME280;11050;52.222;20.916;2023-05-25T05:40:43;100590.66;;;15.77;100.00
21779;BME280;11050;52.222;20.916;2023-05-25T05:43:13;100586.50;;;15.74;100.00
21779;BME280;11050;52.222;20.916;2023-05-25T05:45:39;100599.78;;;15.82;100.00
21779;BME280;11050;52.222;20.916;2023-05-25T05:48:06;100595.09;;;15.78;100.00
21779;BME280;11050;52.222;20.916;2023-05-25T05:50:38;100598.97;;;15.82;100.00
21779;BME280;11050;52.222;20.916;2023-05-25T05:53:05;100599.22;;;15.85;100.00
21779;BME280;11050;52.222;20.916;2023-05-25T05:55:32;100595.06;;;15.93;100.00
21779;BME280;11050;52.222;20.916;2023-05-25T05:57:57;100599.72;;;15.97;100.00
21779;BME280;11050;52.222;20.916;2023-05-25T06:00:24;100599.44;;;15.99;100.00
21779;BME280;11050;52.222;20.916;2023-05-25T06:02:50;100609.66;;;16.08;100.00
21779;BME280;11050;52.222;20.916;2023-05-25T06:05:16;100612.13;;;16.20;100.00
21779;BME280;11050;52.222;20.916;2023-05-25T06:07:42;100612.38;;;16.24;100.00
21779;BME280;11050;52.222;20.916;2023-05-25T06:10:09;100616.56;;;16.21;100.00
21779;BME280;11050;52.222;20.916;2023-05-25T06:12:34;100621.28;;;16.21;100.00
21779;BME280;11050;52.222;20.916;2023-05-25T06:15:00;100612.69;;;16.22;100.00
21779;BME280;11050;52.222;20.916;2023-05-25T06:17:27;100619.56;;;16.30;100.00
21779;BME280;11050;52.222;20.916;2023-05-25T06:19:54;100630.94;;;16.33;100.00
21779;BME280;11050;52.222;20.916;2023-05-25T06:22:20;100632.59;;;16.34;100.00
21779;BME280;11050;52.222;20.916;2023-05-25T06:24:47;100626.28;;;16.19;100.00
21779;BME280;11050;52.222;20.916;2023-05-25T06:27:12;100625.69;;;16.22;100.00
21779;BME280;11050;52.222;20.916;2023-05-25T06:29:38;100644.31;;;16.21;100.00
21779;BME280;11050;52.222;20.916;2023-05-25T06:32:04;100640.13;;;16.24;100.00
21779;BME280;11050;52.222;20.916;2023-05-25T06:34:30;100636.78;;;16.22;100.00
21779;BME280;11050;52.222;20.916;2023-05-25T06:36:56;100637.63;;;16.27;100.00
21779;BME280;11050;52.222;20.916;2023-05-25T06:39:21;100638.69;;;16.31;100.00
21779;BME280;11050;52.222;20.916;2023-05-25T06:41:47;100639.56;;;16.27;100.00
21779;BME280;11050;52.222;20.916;2023-05-25T06:44:12;100640.94;;;16.34;100.00
21779;BME280;11050;52.222;20.916;2023-05-25T06:46:38;100640.91;;;16.39;100.00
21779;BME280;11050;52.222;20.916;2023-05-25T06:49:04;100643.38;;;16.41;100.00
21779;BME280;11050;52.222;20.916;2023-05-25T06:51:30;100641.41;;;16.46;100.00
21779;BME280;11050;52.222;20.916;2023-05-25T06:53:58;100643.97;;;16.48;100.00
21779;BME280;11050;52.222;20.916;2023-05-25T06:56:23;100649.72;;;16.56;100.00
21779;BME280;11050;52.222;20.916;2023-05-25T06:58:50;100649.44;;;16.58;100.00
21779;BME280;11050;52.222;20.916;2023-05-25T07:01:15;100644.69;;;16.63;100.00
21779;BME280;11050;52.222;20.916;2023-05-25T07:03:42;100643.03;;;16.62;100.00
21779;BME280;11050;52.222;20.916;2023-05-25T07:06:08;100639.75;;;16.55;100.00
21779;BME280;11050;52.222;20.916;2023-05-25T07:08:35;100652.00;;;16.49;100.00
21779;BME280;11050;52.222;20.916;2023-05-25T07:11:01;100635.59;;;16.53;100.00
21779;BME280;11050;52.222;20.916;2023-05-25T07:13:27;100641.13;;;16.58;100.00
21779;BME280;11050;52.222;20.916;2023-05-25T07:15:52;100640.81;;;16.64;100.00
21779;BME280;11050;52.222;20.916;2023-05-25T07:18:18;100647.16;;;16.70;100.00
21779;BME280;11050;52.222;20.916;2023-05-25T07:20:44;100646.59;;;16.73;100.00
21779;BME280;11050;52.222;20.916;2023-05-25T07:23:12;100637.97;;;16.74;100.00
21779;BME280;11050;52.222;20.916;2023-05-25T07:25:39;100644.06;;;16.81;100.00
21779;BME280;11050;52.222;20.916;2023-05-25T07:28:06;100642.28;;;16.95;100.00
21779;BME280;11050;52.222;20.916;2023-05-25T07:30:32;100638.31;;;17.06;100.00
21779;BME280;11050;52.222;20.916;2023-05-25T07:32:58;100641.06;;;17.12;100.00
21779;BME280;11050;52.222;20.916;2023-05-25T07:35:24;100642.38;;;17.24;100.00
21779;BME280;11050;52.222;20.916;2023-05-25T07:38:02;100657.59;;;17.32;100.00
21779;BME280;11050;52.222;20.916;2023-05-25T07:40:29;100651.44;;;17.35;100.00
21779;BME280;11050;52.222;20.916;2023-05-25T07:42:55;100651.38;;;17.45;100.00
21779;BME280;11050;52.222;20.916;2023-05-25T07:45:21;100653.25;;;17.54;100.00
21779;BME280;11050;52.222;20.916;2023-05-25T07:47:47;100639.03;;;17.61;100.00
21779;BME280;11050;52.222;20.916;2023-05-25T07:50:14;100650.56;;;17.78;100.00
21779;BME280;11050;52.222;20.916;2023-05-25T07:52:40;100655.34;;;17.96;100.00
21779;BME280;11050;52.222;20.916;2023-05-25T07:55:07;100651.88;;;18.09;100.00
21779;BME280;11050;52.222;20.916;2023-05-25T07:57:33;100651.63;;;18.29;98.67
21779;BME280;11050;52.222;20.916;2023-05-25T07:59:59;100643.72;;;18.41;96.82
21779;BME280;11050;52.222;20.916;2023-05-25T08:02:24;100653.53;;;18.57;94.72
21779;BME280;11050;52.222;20.916;2023-05-25T08:04:51;100654.94;;;18.78;93.78
21779;BME280;11050;52.222;20.916;2023-05-25T08:07:19;100650.06;;;18.89;93.19
21779;BME280;11050;52.222;20.916;2023-05-25T08:09:46;100660.28;;;19.12;91.34
21779;BME280;11050;52.222;20.916;2023-05-25T08:12:11;100656.09;;;19.33;91.25
21779;BME280;11050;52.222;20.916;2023-05-25T08:14:37;100662.69;;;19.56;88.66
21779;BME280;11050;52.222;20.916;2023-05-25T08:17:03;100660.78;;;19.70;87.66
21779;BME280;11050;52.222;20.916;2023-05-25T08:19:30;100661.84;;;19.88;85.94
21779;BME280;11050;52.222;20.916;2023-05-25T08:21:57;100647.81;;;19.93;84.60
21779;BME280;11050;52.222;20.916;2023-05-25T08:24:23;100651.34;;;19.98;84.13
21779;BME280;11050;52.222;20.916;2023-05-25T08:26:48;100646.06;;;19.97;83.37
21779;BME280;11050;52.222;20.916;2023-05-25T08:29:14;100656.50;;;20.05;83.18
21779;BME280;11050;52.222;20.916;2023-05-25T08:31:40;100666.69;;;20.28;81.93
21779;BME280;11050;52.222;20.916;2023-05-25T08:34:08;100664.22;;;20.53;80.71
21779;BME280;11050;52.222;20.916;2023-05-25T08:36:34;100663.41;;;20.53;80.11
21779;BME280;11050;52.222;20.916;2023-05-25T08:39:02;100661.00;;;20.60;79.16
21779;BME280;11050;52.222;20.916;2023-05-25T08:41:29;100651.19;;;20.62;80.01
21779;BME280;11050;52.222;20.916;2023-05-25T08:43:55;100649.13;;;20.68;79.17
21779;BME280;11050;52.222;20.916;2023-05-25T08:46:29;100657.28;;;20.64;78.92
21779;BME280;11050;52.222;20.916;2023-05-25T08:49:09;100668.78;;;20.49;79.95
21779;BME280;11050;52.222;20.916;2023-05-25T08:51:51;100664.53;;;20.52;80.11
21779;BME280;11050;52.222;20.916;2023-05-25T08:54:24;100668.78;;;20.49;79.55
21779;BME280;11050;52.222;20.916;2023-05-25T08:57:22;100657.50;;;20.41;80.91
21779;BME280;11050;52.222;20.916;2023-05-25T09:00:05;100664.63;;;20.33;80.72
21779;BME280;11050;52.222;20.916;2023-05-25T09:05:36;100657.81;;;20.39;80.74
21779;BME280;11050;52.222;20.916;2023-05-25T09:08:05;100669.56;;;20.36;80.18
21779;BME280;11050;52.222;20.916;2023-05-25T09:10:33;100658.94;;;20.38;80.05
21779;BME280;11050;52.222;20.916;2023-05-25T09:13:00;100666.91;;;20.45;80.54
21779;BME280;11050;52.222;20.916;2023-05-25T09:15:26;100665.34;;;20.52;80.28
21779;BME280;11050;52.222;20.916;2023-05-25T09:17:52;100665.88;;;20.54;79.46
21779;BME280;11050;52.222;20.916;2023-05-25T09:20:18;100667.75;;;20.59;79.32
21779;BME280;11050;52.222;20.916;2023-05-25T09:22:47;100674.13;;;20.73;78.56
21779;BME280;11050;52.222;20.916;2023-05-25T09:25:17;100673.38;;;20.95;77.54
21779;BME280;11050;52.222;20.916;2023-05-25T09:27:46;100677.16;;;21.26;76.45
21779;BME280;11050;52.222;20.916;2023-05-25T09:30:12;100681.31;;;21.50;75.12
21779;BME280;11050;52.222;20.916;2023-05-25T09:32:38;100666.63;;;21.67;73.40
21779;BME280;11050;52.222;20.916;2023-05-25T09:35:12;100683.53;;;21.62;73.99
21779;BME280;11050;52.222;20.916;2023-05-25T09:37:43;100668.09;;;21.64;72.17
21779;BME280;11050;52.222;20.916;2023-05-25T09:40:09;100676.56;;;21.51;72.88
21779;BME280;11050;52.222;20.916;2023-05-25T09:42:36;100683.78;;;21.52;72.98
21779;BME280;11050;52.222;20.916;2023-05-25T09:45:03;100679.16;;;21.47;72.60
21779;BME280;11050;52.222;20.916;2023-05-25T09:47:30;100684.25;;;21.45;73.26
21779;BME280;11050;52.222;20.916;2023-05-25T09:49:56;100689.19;;;21.48;73.70
21779;BME280;11050;52.222;20.916;2023-05-25T09:52:22;100686.00;;;21.41;73.76
21779;BME280;11050;52.222;20.916;2023-05-25T09:54:50;100685.19;;;21.41;74.37
21779;BME280;11050;52.222;20.916;2023-05-25T09:57:19;100681.88;;;21.39;74.38
21779;BME280;11050;52.222;20.916;2023-05-25T09:59:46;100685.56;;;21.48;74.21
21779;BME280;11050;52.222;20.916;2023-05-25T10:02:13;100678.88;;;21.57;74.36
21779;BME280;11050;52.222;20.916;2023-05-25T10:04:40;100677.69;;;21.50;74.30
21779;BME280;11050;52.222;20.916;2023-05-25T10:07:06;100682.00;;;21.56;75.12
21779;BME280;11050;52.222;20.916;2023-05-25T10:09:39;100683.41;;;21.67;75.01
21779;BME280;11050;52.222;20.916;2023-05-25T10:12:10;100691.03;;;21.75;74.51
21779;BME280;11050;52.222;20.916;2023-05-25T10:14:37;100685.84;;;21.82;74.63
21779;BME280;11050;52.222;20.916;2023-05-25T10:17:05;100684.38;;;21.85;73.96
21779;BME280;11050;52.222;20.916;2023-05-25T10:22:18;100676.53;;;21.95;73.58
21779;BME280;11050;52.222;20.916;2023-05-25T10:27:24;100664.03;;;21.93;72.39
21779;BME280;11050;52.222;20.916;2023-05-25T10:29:55;100671.63;;;22.01;71.89
21779;BME280;11050;52.222;20.916;2023-05-25T10:32:21;100673.22;;;22.15;70.66
21779;BME280;11050;52.222;20.916;2023-05-25T10:34:49;100672.47;;;22.32;70.75
21779;BME280;11050;52.222;20.916;2023-05-25T10:37:17;100672.72;;;22.52;70.20
21779;BME280;11050;52.222;20.916;2023-05-25T10:39:44;100669.38;;;22.90;68.67
21779;BME280;11050;52.222;20.916;2023-05-25T10:42:11;100665.16;;;23.26;68.15
21779;BME280;11050;52.222;20.916;2023-05-25T10:44:40;100659.88;;;23.68;65.40
21779;BME280;11050;52.222;20.916;2023-05-25T10:47:07;100665.91;;;24.12;63.38
21779;BME280;11050;52.222;20.916;2023-05-25T10:49:50;100654.75;;;24.33;62.78
21779;BME280;11050;52.222;20.916;2023-05-25T10:52:17;100656.16;;;24.48;61.70
21779;BME280;11050;52.222;20.916;2023-05-25T10:54:47;100664.66;;;24.77;62.05
21779;BME280;11050;52.222;20.916;2023-05-25T10:57:21;100665.09;;;25.28;61.24
21779;BME280;11050;52.222;20.916;2023-05-25T10:59:49;100654.94;;;25.77;59.49
21779;BME280;11050;52.222;20.916;2023-05-25T11:02:18;100651.59;;;26.53;56.60
21779;BME280;11050;52.222;20.916;2023-05-25T11:04:48;100657.28;;;27.41;54.15
21779;BME280;11050;52.222;20.916;2023-05-25T11:07:16;100656.88;;;27.82;51.58
21779;BME280;11050;52.222;20.916;2023-05-25T11:09:57;100650.59;;;28.47;48.59
21779;BME280;11050;52.222;20.916;2023-05-25T11:12:25;100653.56;;;29.17;47.13
21779;BME280;11050;52.222;20.916;2023-05-25T11:15:13;100661.22;;;30.12;42.74
21779;BME280;11050;52.222;20.916;2023-05-25T11:17:57;100660.44;;;30.79;41.79
21779;BME280;11050;52.222;20.916;2023-05-25T11:20:28;100652.66;;;31.28;40.53
21779;BME280;11050;52.222;20.916;2023-05-25T11:22:56;100653.88;;;31.87;38.28
21779;BME280;11050;52.222;20.916;2023-05-25T11:25:38;100649.41;;;32.22;39.10
21779;BME280;11050;52.222;20.916;2023-05-25T11:28:08;100654.78;;;32.71;35.13
21779;BME280;11050;52.222;20.916;2023-05-25T11:30:38;100653.25;;;32.84;34.60
21779;BME280;11050;52.222;20.916;2023-05-25T11:33:04;100653.75;;;32.49;35.33
21779;BME280;11050;52.222;20.916;2023-05-25T11:35:32;100652.38;;;32.36;35.32
21779;BME280;11050;52.222;20.916;2023-05-25T11:37:59;100652.78;;;32.75;33.53
21779;BME280;11050;52.222;20.916;2023-05-25T11:40:29;100655.88;;;33.10;32.08
21779;BME280;11050;52.222;20.916;2023-05-25T11:42:58;100647.03;;;33.26;32.92
21779;BME280;11050;52.222;20.916;2023-05-25T11:45:28;100650.09;;;33.65;31.97
21779;BME280;11050;52.222;20.916;2023-05-25T11:47:54;100651.09;;;34.11;32.55
21779;BME280;11050;52.222;20.916;2023-05-25T11:50:21;100647.03;;;34.33;31.51
21779;BME280;11050;52.222;20.916;2023-05-25T11:52:47;100649.13;;;34.64;30.65
21779;BME280;11050;52.222;20.916;2023-05-25T11:55:13;100647.47;;;34.91;30.45
21779;BME280;11050;52.222;20.916;2023-05-25T11:57:40;100646.63;;;35.19;29.93
21779;BME280;11050;52.222;20.916;2023-05-25T12:00:07;100647.44;;;35.23;29.24
21779;BME280;11050;52.222;20.916;2023-05-25T12:02:40;100645.38;;;35.27;29.38
21779;BME280;11050;52.222;20.916;2023-05-25T12:05:06;100649.13;;;35.03;29.02
21779;BME280;11050;52.222;20.916;2023-05-25T12:07:33;100643.00;;;34.97;29.47
21779;BME280;11050;52.222;20.916;2023-05-25T12:10:13;100642.94;;;35.29;28.44
21779;BME280;11050;52.222;20.916;2023-05-25T12:12:49;100637.41;;;35.84;28.42
21779;BME280;11050;52.222;20.916;2023-05-25T12:15:23;100644.19;;;36.18;27.56
21779;BME280;11050;52.222;20.916;2023-05-25T12:17:51;100639.38;;;36.63;27.25
21779;BME280;11050;52.222;20.916;2023-05-25T12:20:18;100645.97;;;36.60;26.88
21779;BME280;11050;52.222;20.916;2023-05-25T12:22:46;100632.22;;;36.34;27.76
21779;BME280;11050;52.222;20.916;2023-05-25T12:25:14;100633.72;;;36.56;27.46
21779;BME280;11050;52.222;20.916;2023-05-25T12:27:42;100635.22;;;36.71;26.43
21779;BME280;11050;52.222;20.916;2023-05-25T12:30:09;100627.38;;;36.24;26.41
21779;BME280;11050;52.222;20.916;2023-05-25T12:32:52;100621.31;;;35.17;28.68
21779;BME280;11050;52.222;20.916;2023-05-25T12:35:19;100616.00;;;35.19;29.20
21779;BME280;11050;52.222;20.916;2023-05-25T12:37:44;100619.72;;;35.06;29.42
21779;BME280;11050;52.222;20.916;2023-05-25T12:40:18;100616.03;;;34.17;30.13
21779;BME280;11050;52.222;20.916;2023-05-25T12:42:45;100606.38;;;33.39;31.50
21779;BME280;11050;52.222;20.916;2023-05-25T12:45:10;100608.59;;;32.99;32.32